createdAt,value
2019-03-18T00:00:13.818Z,97985.42
2019-03-18T00:02:46.754Z,97984.98
2019-03-18T00:05:19.798Z,97994.53
2019-03-18T00:07:53.769Z,98021.55
2019-03-18T00:10:30.241Z,98019.16
2019-03-18T00:13:03.670Z,98010.34
2019-03-18T00:15:35.527Z,98004.23
2019-03-18T00:18:11.898Z,98002.94
2019-03-18T00:20:47.130Z,98004.94
2019-03-18T00:23:21.331Z,97999.58
2019-03-18T00:25:54.650Z,98008.09
2019-03-18T00:28:28.028Z,98000.45
2019-03-18T00:31:01.798Z,98009.05
2019-03-18T00:33:35.744Z,98007.27
2019-03-18T00:36:09.304Z,97998.16
2019-03-18T00:38:41.314Z,98006.64
2019-03-18T00:41:13.741Z,98009.05
2019-03-18T00:43:47.075Z,98009.89
2019-03-18T00:46:20.492Z,98009.66
2019-03-18T00:48:57.366Z,98025.05
2019-03-18T00:51:30.011Z,98033.55
2019-03-18T00:54:03.217Z,98020.39
2019-03-18T00:56:35.604Z,98012.78
2019-03-18T00:59:08.035Z,98014.80
2019-03-18T01:01:40.989Z,98007.06
2019-03-18T01:04:14.276Z,98023.06
2019-03-18T01:06:45.894Z,98027.34
2019-03-18T01:09:20.178Z,98021.39
2019-03-18T01:11:54.242Z,98011.95
2019-03-18T01:14:31.970Z,98008.02
2019-03-18T01:17:05.995Z,98006.94
2019-03-18T01:19:40.205Z,98006.20
2019-03-18T01:22:13.560Z,98005.15
2019-03-18T01:24:46.997Z,98003.25
2019-03-18T01:27:20.562Z,97997.50
2019-03-18T01:29:54.279Z,97992.62
2019-03-18T01:32:27.658Z,97993.80
2019-03-18T01:35:00.514Z,97998.22
2019-03-18T01:37:34.161Z,98007.06
2019-03-18T01:40:08.571Z,98015.52
2019-03-18T01:42:41.967Z,98025.44
2019-03-18T01:45:15.241Z,98019.84
2019-03-18T01:47:49.395Z,98028.30
2019-03-18T01:50:22.907Z,98029.50
2019-03-18T01:52:54.773Z,98029.84
2019-03-18T01:55:28.373Z,98027.60
2019-03-18T01:58:01.943Z,98027.95
2019-03-18T02:00:40.103Z,98032.36
2019-03-18T02:03:13.978Z,98037.61
2019-03-18T02:05:47.879Z,98031.05
2019-03-18T02:08:21.196Z,98033.67
2019-03-18T02:10:54.334Z,98021.98
2019-03-18T02:13:27.990Z,98036.15
2019-03-18T02:16:01.114Z,98032.71
2019-03-18T02:18:34.347Z,98044.75
2019-03-18T02:21:06.101Z,98053.45
2019-03-18T02:23:39.264Z,98071.02
2019-03-18T02:26:13.505Z,98078.03
2019-03-18T02:28:47.427Z,98073.64
2019-03-18T02:31:21.503Z,98075.76
2019-03-18T02:33:54.859Z,98079.70
2019-03-18T02:36:28.249Z,98080.67
2019-03-18T02:39:08.284Z,98085.64
2019-03-18T02:41:46.826Z,98086.47
2019-03-18T02:44:21.719Z,98089.31
2019-03-18T02:47:02.799Z,98091.27
2019-03-18T02:49:37.560Z,98097.09
2019-03-18T02:52:12.930Z,98094.47
2019-03-18T02:54:48.644Z,98089.77
2019-03-18T02:57:22.324Z,98077.73
2019-03-18T02:59:55.390Z,98080.91
2019-03-18T03:02:28.727Z,98074.47
2019-03-18T03:05:01.693Z,98071.45
2019-03-18T03:07:34.583Z,98077.41
2019-03-18T03:10:08.927Z,98083.02
2019-03-18T03:12:42.077Z,98092.80
2019-03-18T03:15:15.476Z,98109.70
2019-03-18T03:17:48.665Z,98108.13
2019-03-18T03:20:22.139Z,98113.16
2019-03-18T03:22:55.438Z,98113.02
2019-03-18T03:25:28.132Z,98117.95
2019-03-18T03:28:01.280Z,98110.01
2019-03-18T03:30:33.751Z,98108.48
2019-03-18T03:33:06.792Z,98108.26
2019-03-18T03:35:41.470Z,98112.06
2019-03-18T03:38:17.516Z,98113.48
2019-03-18T03:40:50.635Z,98112.98
2019-03-18T03:43:26.689Z,98123.48
2019-03-18T03:46:00.652Z,98127.80
2019-03-18T03:48:37.344Z,98133.14
2019-03-18T03:51:10.308Z,98133.66
2019-03-18T03:53:44.243Z,98133.02
2019-03-18T03:56:17.863Z,98136.70
2019-03-18T03:58:49.581Z,98130.19
2019-03-18T04:01:22.362Z,98130.12
2019-03-18T04:03:55.145Z,98137.52
2019-03-18T04:06:28.086Z,98131.75
2019-03-18T04:09:01.214Z,98136.25
2019-03-18T04:11:34.082Z,98126.62
2019-03-18T04:14:07.504Z,98124.06
2019-03-18T04:17:00.567Z,98133.48
2019-03-18T04:19:20.667Z,98128.27
2019-03-18T04:21:54.675Z,98132.09
2019-03-18T04:24:27.684Z,98138.90
2019-03-18T04:27:01.234Z,98137.84
2019-03-18T04:29:33.813Z,98146.06
2019-03-18T04:32:08.218Z,98139.51
2019-03-18T04:34:41.647Z,98139.94
2019-03-18T04:37:14.916Z,98131.44
2019-03-18T04:39:49.176Z,98143.69
2019-03-18T04:42:23.169Z,98135.16
2019-03-18T04:44:56.208Z,98136.81
2019-03-18T04:47:29.241Z,98137.70
2019-03-18T04:50:02.681Z,98144.44
2019-03-18T04:52:35.977Z,98152.26
2019-03-18T04:55:09.675Z,98151.59
2019-03-18T04:57:43.326Z,98149.49
2019-03-18T05:00:16.380Z,98155.82
2019-03-18T05:02:49.394Z,98153.53
2019-03-18T05:05:22.439Z,98157.92
2019-03-18T05:07:54.923Z,98159.44
2019-03-18T05:10:27.688Z,98161.76
2019-03-18T05:13:01.617Z,98154.45
2019-03-18T05:15:34.625Z,98158.44
2019-03-18T05:18:06.372Z,98165.67
2019-03-18T05:20:38.816Z,98171.77
2019-03-18T05:23:12.074Z,98176.02
2019-03-18T05:25:44.107Z,98180.95
2019-03-18T05:28:17.147Z,98182.09
2019-03-18T05:30:50.815Z,98182.00
2019-03-18T05:33:23.580Z,98194.08
2019-03-18T05:35:56.936Z,98200.05
2019-03-18T05:38:29.913Z,98197.99
2019-03-18T05:41:02.467Z,98209.95
2019-03-18T05:43:34.865Z,98209.68
2019-03-18T05:46:08.344Z,98211.00
2019-03-18T05:48:41.622Z,98206.05
2019-03-18T05:51:14.404Z,98202.87
2019-03-18T05:53:47.549Z,98202.87
2019-03-18T05:56:20.361Z,98209.80
2019-03-18T05:58:53.221Z,98212.52
2019-03-18T06:01:26.716Z,98228.84
2019-03-18T06:03:59.925Z,98222.30
2019-03-18T06:06:32.966Z,98227.80
2019-03-18T06:09:05.775Z,98223.97
2019-03-18T06:11:39.118Z,98226.23
2019-03-18T06:14:12.078Z,98225.78
2019-03-18T06:16:43.924Z,98232.67
2019-03-18T06:19:16.795Z,98236.70
2019-03-18T06:21:48.575Z,98240.22
2019-03-18T06:24:21.308Z,98235.28
2019-03-18T06:26:54.454Z,98230.33
2019-03-18T06:29:29.951Z,98236.48
2019-03-18T06:32:03.888Z,98236.69
2019-03-18T06:34:37.388Z,98238.91
2019-03-18T06:37:10.348Z,98236.83
2019-03-18T06:39:42.038Z,98242.97
2019-03-18T06:42:14.553Z,98251.52
2019-03-18T06:44:47.289Z,98248.09
2019-03-18T06:47:20.298Z,98252.39
2019-03-18T06:49:52.957Z,98257.64
2019-03-18T06:52:26.741Z,98250.69
2019-03-18T06:55:00.418Z,98249.89
2019-03-18T06:57:33.206Z,98257.55
2019-03-18T07:00:07.114Z,98264.55
2019-03-18T07:02:40.957Z,98267.67
2019-03-18T07:05:13.767Z,98258.77
2019-03-18T07:07:47.131Z,98261.45
2019-03-18T07:10:20.496Z,98266.52
2019-03-18T07:12:52.746Z,98269.30
2019-03-18T07:15:27.437Z,98269.02
2019-03-18T07:18:00.756Z,98268.72
2019-03-18T07:20:34.219Z,98265.61
2019-03-18T07:23:07.725Z,98281.35
2019-03-18T07:25:40.654Z,98289.29
2019-03-18T07:28:13.904Z,98290.25
2019-03-18T07:30:47.178Z,98297.72
2019-03-18T07:33:20.654Z,98301.58
2019-03-18T07:35:54.297Z,98307.67
2019-03-18T07:38:27.281Z,98313.50
2019-03-18T07:40:59.095Z,98321.67
2019-03-18T07:43:31.913Z,98325.09
2019-03-18T07:46:05.420Z,98327.05
2019-03-18T07:48:39.049Z,98329.03
2019-03-18T07:51:10.844Z,98316.87
2019-03-18T07:53:44.437Z,98314.91
2019-03-18T07:56:18.044Z,98323.44
2019-03-18T07:58:50.126Z,98315.91
2019-03-18T08:01:23.019Z,98326.67
2019-03-18T08:03:55.095Z,98324.02
2019-03-18T08:06:28.552Z,98318.10
2019-03-18T08:09:01.628Z,98319.19
2019-03-18T08:11:34.859Z,98321.64
2019-03-18T08:14:06.292Z,98328.60
2019-03-18T08:16:40.034Z,98333.08
2019-03-18T08:19:12.966Z,98328.98
2019-03-18T08:21:46.446Z,98330.91
2019-03-18T08:24:19.846Z,98334.52
2019-03-18T08:26:55.518Z,98345.92
2019-03-18T08:29:29.418Z,98338.87
2019-03-18T08:32:02.998Z,98339.27
2019-03-18T08:34:36.766Z,98351.96
2019-03-18T08:37:10.427Z,98349.75
2019-03-18T08:39:44.092Z,98352.19
2019-03-18T08:42:18.071Z,98349.95
2019-03-18T08:44:51.374Z,98353.89
2019-03-18T08:47:24.502Z,98352.48
2019-03-18T08:49:57.619Z,98358.45
2019-03-18T08:52:30.390Z,98351.63
2019-03-18T08:55:03.748Z,98350.44
2019-03-18T08:57:37.614Z,98350.18
2019-03-18T09:00:12.457Z,98350.29
2019-03-18T09:02:46.682Z,98346.27
2019-03-18T09:05:20.276Z,98360.69
2019-03-18T09:07:53.956Z,98361.52
2019-03-18T09:10:26.619Z,98372.20
2019-03-18T09:12:59.989Z,98367.91
2019-03-18T09:15:33.080Z,98378.53
2019-03-18T09:18:06.238Z,98380.39
2019-03-18T09:20:39.337Z,98369.23
2019-03-18T09:23:10.990Z,98378.91
2019-03-18T09:25:44.021Z,98381.23
2019-03-18T09:28:17.529Z,98370.17
2019-03-18T09:30:48.883Z,98372.56
2019-03-18T09:33:21.630Z,98364.84
2019-03-18T09:35:55.439Z,98353.77
2019-03-18T09:38:29.495Z,98349.37
2019-03-18T09:41:03.276Z,98350.55
2019-03-18T09:43:36.588Z,98348.86
2019-03-18T09:46:10.131Z,98351.38
2019-03-18T09:48:43.559Z,98353.50
2019-03-18T09:51:16.995Z,98358.12
2019-03-18T09:53:49.920Z,98362.54
2019-03-18T09:56:23.190Z,98367.05
2019-03-18T09:58:56.417Z,98360.91
2019-03-18T10:01:29.533Z,98356.45
2019-03-18T10:04:01.288Z,98347.90
2019-03-18T10:06:33.834Z,98355.50
2019-03-18T10:09:09.503Z,98359.22
2019-03-18T10:11:43.780Z,98368.59
2019-03-18T10:14:19.706Z,98366.45
2019-03-18T10:16:52.774Z,98359.60
2019-03-18T10:19:33.543Z,98359.23
2019-03-18T10:22:01.574Z,98364.74
2019-03-18T10:24:34.397Z,98378.11
2019-03-18T10:27:06.928Z,98359.89
2019-03-18T10:29:40.743Z,98370.33
2019-03-18T10:32:14.482Z,98368.74
2019-03-18T10:34:48.832Z,98380.94
2019-03-18T10:37:22.908Z,98383.53
2019-03-18T10:39:56.402Z,98381.03
2019-03-18T10:42:29.981Z,98389.53
2019-03-18T10:45:03.303Z,98386.34
2019-03-18T10:47:36.196Z,98392.72
2019-03-18T10:50:08.757Z,98384.70
2019-03-18T10:52:41.776Z,98392.58
2019-03-18T10:55:15.564Z,98393.84
2019-03-18T10:57:48.853Z,98391.80
2019-03-18T11:00:21.866Z,98401.10
2019-03-18T11:02:53.512Z,98407.45
2019-03-18T11:05:26.911Z,98406.53
2019-03-18T11:08:01.167Z,98405.73
2019-03-18T11:10:35.608Z,98400.34
2019-03-18T11:13:09.170Z,98411.45
2019-03-18T11:15:42.852Z,98408.27
2019-03-18T11:18:16.525Z,98414.25
2019-03-18T11:20:50.393Z,98418.01
2019-03-18T11:23:23.887Z,98418.64
2019-03-18T11:25:55.240Z,98416.47
2019-03-18T11:28:28.940Z,98434.80
2019-03-18T11:31:02.277Z,98429.84
2019-03-18T11:33:35.339Z,98434.06
2019-03-18T11:36:08.658Z,98437.98
2019-03-18T11:38:42.561Z,98429.81
2019-03-18T11:41:17.442Z,98436.20
2019-03-18T11:43:51.223Z,98439.37
2019-03-18T11:46:22.640Z,98435.73
2019-03-18T11:48:55.845Z,98431.25
2019-03-18T11:51:30.235Z,98440.42
2019-03-18T11:54:03.636Z,98448.21
2019-03-18T11:56:35.833Z,98453.39
2019-03-18T11:59:08.223Z,98449.35
2019-03-18T12:01:41.594Z,98446.84
2019-03-18T12:04:14.643Z,98448.64
2019-03-18T12:06:47.741Z,98455.77
2019-03-18T12:09:20.520Z,98449.17
2019-03-18T12:11:53.328Z,98442.50
2019-03-18T12:14:27.260Z,98442.00
2019-03-18T12:17:00.611Z,98442.84
2019-03-18T12:19:34.357Z,98439.44
2019-03-18T12:22:08.450Z,98435.88
2019-03-18T12:24:45.804Z,98428.80
2019-03-18T12:27:19.116Z,98432.44
2019-03-18T12:29:52.618Z,98432.31
2019-03-18T12:32:25.924Z,98423.92
2019-03-18T12:34:59.147Z,98423.22
2019-03-18T12:37:32.196Z,98434.67
2019-03-18T12:40:05.654Z,98414.45
2019-03-18T12:42:39.106Z,98425.58
2019-03-18T12:45:11.606Z,98417.28
2019-03-18T12:47:43.929Z,98407.54
2019-03-18T12:50:17.554Z,98405.52
2019-03-18T12:52:51.195Z,98402.25
2019-03-18T12:55:24.624Z,98397.17
2019-03-18T12:57:56.326Z,98388.66
2019-03-18T13:00:29.196Z,98404.78
2019-03-18T13:03:00.763Z,98392.66
2019-03-18T13:05:33.783Z,98396.52
2019-03-18T13:08:08.414Z,98407.19
2019-03-18T13:10:41.802Z,98391.41
2019-03-18T13:13:15.415Z,98382.96
2019-03-18T13:15:50.622Z,98388.37
2019-03-18T13:18:23.282Z,98384.69
2019-03-18T13:21:07.247Z,98382.52
2019-03-18T13:23:32.557Z,98377.04
2019-03-18T13:26:06.273Z,98384.94
2019-03-18T13:28:40.537Z,98394.67
2019-03-18T13:31:14.240Z,98398.41
2019-03-18T13:33:47.964Z,98395.30
2019-03-18T13:36:21.469Z,98400.45
2019-03-18T13:38:55.525Z,98403.27
2019-03-18T13:41:29.927Z,98397.52
2019-03-18T13:44:04.064Z,98408.37
2019-03-18T13:46:37.466Z,98406.85
2019-03-18T13:49:09.485Z,98412.14
2019-03-18T13:51:44.955Z,98404.42
2019-03-18T13:54:18.086Z,98411.25
2019-03-18T13:56:51.954Z,98405.72
2019-03-18T13:59:25.338Z,98407.42
2019-03-18T14:01:57.474Z,98411.31
2019-03-18T14:04:30.217Z,98416.28
2019-03-18T14:07:01.648Z,98412.61
2019-03-18T14:09:34.071Z,98416.59
2019-03-18T14:12:08.628Z,98417.48
2019-03-18T14:14:42.111Z,98422.39
2019-03-18T14:17:15.828Z,98415.14
2019-03-18T14:19:49.456Z,98412.06
2019-03-18T14:22:22.545Z,98428.53
2019-03-18T14:24:56.616Z,98419.27
2019-03-18T14:27:30.687Z,98414.16
2019-03-18T14:30:04.940Z,98424.82
2019-03-18T14:32:38.445Z,98421.78
2019-03-18T14:35:11.697Z,98427.44
2019-03-18T14:37:44.988Z,98416.37
2019-03-18T14:40:18.229Z,98419.25
2019-03-18T14:42:51.625Z,98419.58
2019-03-18T14:45:24.612Z,98422.33
2019-03-18T14:47:57.898Z,98412.52
2019-03-18T14:50:31.908Z,98410.98
2019-03-18T14:53:05.395Z,98418.92
2019-03-18T14:55:40.005Z,98426.11
2019-03-18T14:58:14.407Z,98415.78
2019-03-18T15:00:48.868Z,98420.00
2019-03-18T15:03:22.717Z,98423.66
2019-03-18T15:05:55.913Z,98420.98
2019-03-18T15:08:29.976Z,98414.20
2019-03-18T15:11:03.442Z,98413.02
2019-03-18T15:13:36.924Z,98414.88
2019-03-18T15:16:10.838Z,98414.61
2019-03-18T15:18:44.851Z,98423.48
2019-03-18T15:21:19.041Z,98421.97
2019-03-18T15:23:52.792Z,98420.89
2019-03-18T15:26:26.286Z,98410.13
2019-03-18T15:28:59.922Z,98405.67
2019-03-18T15:31:33.013Z,98412.04
2019-03-18T15:34:06.166Z,98418.44
2019-03-18T15:36:40.351Z,98429.03
2019-03-18T15:39:14.041Z,98444.97
2019-03-18T15:41:47.997Z,98450.36
2019-03-18T15:44:21.880Z,98466.20
2019-03-18T15:46:55.853Z,98459.41
2019-03-18T15:49:29.741Z,98466.46
2019-03-18T15:52:11.087Z,98457.67
2019-03-18T15:54:39.389Z,98468.48
2019-03-18T15:57:13.236Z,98473.42
2019-03-18T15:59:47.185Z,98472.12
2019-03-18T16:02:20.478Z,98483.02
2019-03-18T16:04:53.051Z,98489.42
2019-03-18T16:07:26.501Z,98493.53
2019-03-18T16:09:59.970Z,98502.78
2019-03-18T16:12:31.912Z,98510.23
2019-03-18T16:15:05.290Z,98520.09
2019-03-18T16:17:41.657Z,98521.80
2019-03-18T16:20:16.225Z,98527.69
2019-03-18T16:22:50.037Z,98534.86
2019-03-18T16:25:23.948Z,98535.05
2019-03-18T16:27:58.249Z,98528.95
2019-03-18T16:30:31.660Z,98535.61
2019-03-18T16:33:03.293Z,98545.54
2019-03-18T16:35:35.682Z,98547.67
2019-03-18T16:38:08.384Z,98545.87
2019-03-18T16:40:42.065Z,98547.52
2019-03-18T16:43:16.124Z,98548.11
2019-03-18T16:45:49.579Z,98554.63
2019-03-18T16:48:21.771Z,98565.67
2019-03-18T16:50:54.855Z,98568.52
2019-03-18T16:53:28.246Z,98578.63
2019-03-18T16:56:01.229Z,98586.83
2019-03-18T16:58:33.771Z,98597.03
2019-03-18T17:01:07.407Z,98596.56
2019-03-18T17:03:40.593Z,98605.07
2019-03-18T17:06:14.048Z,98609.75
2019-03-18T17:08:46.779Z,98612.02
2019-03-18T17:11:20.494Z,98622.41
2019-03-18T17:13:54.099Z,98624.81
2019-03-18T17:16:28.431Z,98625.44
2019-03-18T17:19:01.152Z,98626.72
2019-03-18T17:21:35.099Z,98636.80
2019-03-18T17:24:08.532Z,98642.11
2019-03-18T17:26:41.072Z,98649.09
2019-03-18T17:29:14.340Z,98653.47
2019-03-18T17:31:45.772Z,98656.81
2019-03-18T17:34:18.903Z,98659.45
2019-03-18T17:36:52.612Z,98663.34
2019-03-18T17:39:26.327Z,98665.34
2019-03-18T17:41:59.682Z,98675.99
2019-03-18T17:44:36.210Z,98667.99
2019-03-18T17:47:10.393Z,98674.14
2019-03-18T17:49:44.388Z,98672.91
2019-03-18T17:52:18.109Z,98671.25
2019-03-18T17:54:52.115Z,98665.77
2019-03-18T17:57:25.112Z,98665.32
2019-03-18T17:59:58.246Z,98667.31
2019-03-18T18:02:30.791Z,98673.13
2019-03-18T18:05:04.910Z,98681.33
2019-03-18T18:07:37.984Z,98684.86
2019-03-18T18:10:11.713Z,98688.38
2019-03-18T18:12:44.790Z,98690.49
2019-03-18T18:15:18.338Z,98696.40
2019-03-18T18:17:51.855Z,98702.98
2019-03-18T18:20:23.977Z,98704.11
2019-03-18T18:22:56.695Z,98706.38
2019-03-18T18:25:30.109Z,98706.85
2019-03-18T18:28:04.230Z,98710.59
2019-03-18T18:30:38.537Z,98711.97
2019-03-18T18:33:12.435Z,98718.01
2019-03-18T18:35:46.038Z,98724.50
2019-03-18T18:38:20.676Z,98724.02
2019-03-18T18:40:54.658Z,98733.70
2019-03-18T18:43:29.287Z,98732.20
2019-03-18T18:46:02.876Z,98736.27
2019-03-18T18:48:37.037Z,98736.09
2019-03-18T18:51:10.704Z,98731.69
2019-03-18T18:53:45.237Z,98735.45
2019-03-18T18:56:19.279Z,98733.73
2019-03-18T18:58:53.075Z,98735.64
2019-03-18T19:01:27.458Z,98742.67
2019-03-18T19:04:03.327Z,98745.09
2019-03-18T19:06:37.246Z,98747.52
2019-03-18T19:09:11.605Z,98747.21
2019-03-18T19:11:46.560Z,98751.11
2019-03-18T19:14:21.151Z,98750.26
2019-03-18T19:16:55.601Z,98748.19
2019-03-18T19:19:29.031Z,98750.61
2019-03-18T19:22:03.328Z,98747.75
2019-03-18T19:24:37.305Z,98758.58
2019-03-18T19:27:13.995Z,98762.16
2019-03-18T19:29:47.919Z,98765.50
2019-03-18T19:32:21.877Z,98765.69
2019-03-18T19:34:55.015Z,98770.23
2019-03-18T19:37:28.435Z,98770.75
2019-03-18T19:40:02.276Z,98771.51
2019-03-18T19:42:36.087Z,98782.32
2019-03-18T19:45:11.539Z,98780.98
2019-03-18T19:47:44.665Z,98789.59
2019-03-18T19:50:19.302Z,98781.61
2019-03-18T19:52:53.535Z,98779.57
2019-03-18T19:55:27.011Z,98785.55
2019-03-18T19:57:58.812Z,98780.29
2019-03-18T20:00:31.627Z,98786.47
2019-03-18T20:03:05.779Z,98786.27
2019-03-18T20:05:39.819Z,98784.61
2019-03-18T20:08:13.713Z,98789.86
2019-03-18T20:10:47.891Z,98798.64
2019-03-18T20:13:21.270Z,98798.35
2019-03-18T20:15:54.913Z,98800.42
2019-03-18T20:18:29.983Z,98799.11
2019-03-18T20:21:04.356Z,98807.95
2019-03-18T20:23:37.782Z,98811.89
2019-03-18T20:26:09.640Z,98813.00
2019-03-18T20:28:42.789Z,98818.92
2019-03-18T20:31:25.422Z,98817.34
2019-03-18T20:33:52.138Z,98813.23
2019-03-18T20:36:26.018Z,98819.15
2019-03-18T20:38:59.932Z,98816.62
2019-03-18T20:41:33.371Z,98816.85
2019-03-18T20:44:05.377Z,98827.16
2019-03-18T20:46:38.078Z,98821.74
2019-03-18T20:49:12.544Z,98824.01
2019-03-18T20:51:46.286Z,98830.88
2019-03-18T20:54:20.222Z,98823.64
2019-03-18T20:56:54.143Z,98823.91
2019-03-18T20:59:27.642Z,98823.84
2019-03-18T21:02:02.393Z,98830.31
2019-03-18T21:04:35.958Z,98834.98
2019-03-18T21:07:09.783Z,98840.11
2019-03-18T21:09:45.119Z,98840.70
2019-03-18T21:12:19.454Z,98844.24
2019-03-18T21:14:53.407Z,98843.25
2019-03-18T21:17:27.064Z,98844.05
2019-03-18T21:20:00.954Z,98842.01
2019-03-18T21:22:34.528Z,98843.03
2019-03-18T21:25:07.926Z,98838.43
2019-03-18T21:27:41.088Z,98840.01
2019-03-18T21:30:14.724Z,98843.39
2019-03-18T21:32:46.238Z,98840.77
2019-03-18T21:35:20.261Z,98844.25
2019-03-18T21:37:53.749Z,98844.34
2019-03-18T21:40:27.267Z,98851.77
2019-03-18T21:43:01.019Z,98856.30
2019-03-18T21:45:35.659Z,98852.13
2019-03-18T21:48:09.308Z,98851.59
2019-03-18T21:50:42.688Z,98856.28
2019-03-18T21:53:17.262Z,98860.42
2019-03-18T21:55:51.218Z,98856.50
2019-03-18T21:58:24.644Z,98865.16
2019-03-18T22:00:58.360Z,98864.03
2019-03-18T22:03:31.689Z,98859.60
2019-03-18T22:06:04.569Z,98870.30
2019-03-18T22:08:38.449Z,98863.30
2019-03-18T22:11:14.232Z,98868.92
2019-03-18T22:13:48.133Z,98875.59
2019-03-18T22:16:19.892Z,98879.05
2019-03-18T22:18:55.894Z,98880.72
2019-03-18T22:21:28.988Z,98884.48
2019-03-18T22:24:03.553Z,98874.74
2019-03-18T22:26:37.769Z,98871.54
2019-03-18T22:29:12.365Z,98871.73
2019-03-18T22:31:46.585Z,98878.95
2019-03-18T22:34:21.682Z,98876.42
2019-03-18T22:36:55.755Z,98884.67
2019-03-18T22:39:34.938Z,98880.45
2019-03-18T22:42:09.648Z,98884.36
2019-03-18T22:44:45.875Z,98884.45
2019-03-18T22:47:19.213Z,98899.82
2019-03-18T22:49:52.771Z,98898.33
2019-03-18T22:52:25.805Z,98894.84
2019-03-18T22:55:01.914Z,98897.10
2019-03-18T22:57:35.359Z,98900.44
2019-03-18T23:00:20.560Z,98899.62
2019-03-18T23:03:00.736Z,98900.18
2019-03-18T23:05:34.480Z,98906.83
2019-03-18T23:08:07.968Z,98907.86
2019-03-18T23:10:42.052Z,98909.35
2019-03-18T23:13:16.687Z,98904.46
2019-03-18T23:15:49.734Z,98902.73
2019-03-18T23:18:23.197Z,98907.72
2019-03-18T23:20:58.602Z,98911.46
2019-03-18T23:23:32.004Z,98918.27
2019-03-18T23:26:05.812Z,98921.69
2019-03-18T23:28:45.939Z,98916.68
2019-03-18T23:31:21.306Z,98919.70
2019-03-18T23:33:58.727Z,98927.28
2019-03-18T23:36:31.586Z,98931.55
2019-03-18T23:39:05.927Z,98932.77
2019-03-18T23:41:40.330Z,98940.58
2019-03-18T23:44:14.276Z,98941.61
2019-03-18T23:46:46.934Z,98946.77
2019-03-18T23:49:19.630Z,98937.37
2019-03-18T23:51:53.402Z,98940.81
2019-03-18T23:54:27.648Z,98940.44
2019-03-18T23:57:00.660Z,98941.58
